Lundys Lane, Pennsylvania
Current Conditions -  °F | °C
As of 3:53 PM on Thursday 27 Nov 2014 (Local Time) from KHZY Reporting Station
Light Snow Light Snow  
Wind Chill: 20°   Ceiling: 3000
Heat Index: 30°   Visibility: 5mi
Dew Point: 24°   Wind: 14mph
Humidity: 79%   Direction: 260°W
Pressure: 30.12"   Gusts: NA
Location:  41.8831°N, 80.4041°W
Report Text: KHZY 272053Z AUTO 26012KT 5SM -SN OVC030 M01/M04 A3012 RMK AO2 SNB18E23B43 SLP209 P0000 60000 T10111044 53007
Loading
Personal Weather Stations






























Interactive Weather Map New forecast layout! Learn more

10-Day Weather Forecast

Advertisements
Track Severe Weather on mobile